Time;durP1;ratioP1;P1;durP2;ratioP2;P2;SDS_P1;SDS_P2;PMS_P1;PMS_P2;Temp;Humidity;BMP_temperature;BMP_pressure;BME280_temperature;BME280_humidity;BME280_pressure;Samples;Min_cycle;Max_cycle;Signal;HPM_P1;HPM_P2
2023/03/29 00:02:28;;;;;;;0.00;0.00;;;;;;;;;;5034426;28;20084;-86
2023/03/29 00:04:55;;;;;;;0.00;0.00;;;;;;;;;;5034198;28;20124;-87
2023/03/29 00:07:22;;;;;;;0.00;0.00;;;;;;;;;;5034365;28;20104;-86
2023/03/29 00:09:48;;;;;;;0.00;0.00;;;;;;;;;;5034072;28;20049;-86
2023/03/29 00:12:14;;;;;;;0.00;0.00;;;;;;;;;;5033735;28;20047;-87
2023/03/29 00:14:40;;;;;;;0.00;0.00;;;;;;;;;;5033961;28;20044;-86
2023/03/29 00:17:06;;;;;;;0.00;0.00;;;;;;;;;;5033590;28;20041;-87
2023/03/29 00:19:35;;;;;;;0.00;0.00;;;;;;;;;;5033830;28;20431;-87
2023/03/29 00:22:02;;;;;;;0.00;0.00;;;;;;;;;;5034063;28;20373;-86
2023/03/29 00:24:28;;;;;;;0.00;0.00;;;;;;;;;;5034053;28;20087;-87
2023/03/29 00:26:54;;;;;;;0.00;0.00;;;;;;;;;;5034088;28;20042;-86
2023/03/29 00:29:20;;;;;;;0.00;0.00;;;;;;;;;;5034038;28;20045;-87
2023/03/29 00:31:52;;;;;;;0.00;0.00;;;;;;;;;;5034110;28;20539;-87
2023/03/29 00:34:18;;;;;;;0.00;0.00;;;;;;;;;;5033413;28;20084;-87
2023/03/29 00:36:44;;;;;;;0.00;0.00;;;;;;;;;;5033523;28;20476;-87
2023/03/29 00:39:10;;;;;;;0.00;0.00;;;;;;;;;;5034160;28;20111;-87
2023/03/29 00:41:36;;;;;;;0.00;0.00;;;;;;;;;;5033987;28;20449;-88
2023/03/29 00:44:03;;;;;;;0.00;0.00;;;;;;;;;;5033861;28;20051;-87
2023/03/29 00:46:30;;;;;;;0.30;0.10;;;;;;;;;;5033405;28;20041;-88
2023/03/29 00:48:58;;;;;;;0.00;0.00;;;;;;;;;;5033095;28;20057;-87
2023/03/29 00:51:25;;;;;;;0.00;0.00;;;;;;;;;;5033464;28;20041;-87
2023/03/29 00:53:54;;;;;;;0.00;0.00;;;;;;;;;;5033419;28;20080;-87
2023/03/29 00:56:36;;;;;;;0.00;0.00;;;;;;;;;;5033362;28;20099;-87
2023/03/29 00:59:04;;;;;;;0.00;0.00;;;;;;;;;;5028284;28;20052;-87
2023/03/29 01:01:45;;;;;;;0.00;0.00;;;;;;;;;;4997031;28;20065;-87
2023/03/29 01:04:17;;;;;;;0.30;0.20;;;;;;;;;;4997207;28;20050;-87
2023/03/29 01:06:46;;;;;;;0.00;0.00;;;;;;;;;;4996853;28;20402;-88
2023/03/29 01:09:13;;;;;;;0.00;0.00;;;;;;;;;;4996754;28;20045;-87
2023/03/29 01:11:41;;;;;;;0.00;0.00;;;;;;;;;;4996863;28;20045;-88
2023/03/29 01:14:11;;;;;;;0.00;0.00;;;;;;;;;;4996916;28;20412;-88
2023/03/29 01:16:38;;;;;;;0.00;0.00;;;;;;;;;;4996600;28;20068;-87
2023/03/29 01:19:06;;;;;;;0.00;0.00;;;;;;;;;;4996969;28;20052;-87
2023/03/29 01:21:50;;;;;;;0.00;0.00;;;;;;;;;;4996369;28;20128;-89
2023/03/29 01:24:19;;;;;;;0.00;0.00;;;;;;;;;;4996703;28;20042;-87
2023/03/29 01:26:45;;;;;;;0.00;0.00;;;;;;;;;;4996460;28;20135;-87
2023/03/29 01:29:15;;;;;;;0.00;0.00;;;;;;;;;;4996365;28;20041;-87
2023/03/29 01:31:43;;;;;;;0.00;0.00;;;;;;;;;;4996635;28;20042;-88
2023/03/29 01:34:16;;;;;;;0.00;0.00;;;;;;;;;;4996645;28;20073;-88
2023/03/29 01:36:48;;;;;;;0.00;0.00;;;;;;;;;;4996477;28;20044;-87
2023/03/29 01:39:14;;;;;;;0.00;0.00;;;;;;;;;;4996931;28;20125;-87
2023/03/29 01:41:46;;;;;;;0.00;0.00;;;;;;;;;;4996356;28;20085;-88
2023/03/29 01:44:20;;;;;;;0.00;0.00;;;;;;;;;;4996303;28;20137;-88
2023/03/29 01:46:47;;;;;;;0.00;0.00;;;;;;;;;;4996130;28;20061;-88
2023/03/29 01:49:23;;;;;;;0.00;0.00;;;;;;;;;;4996169;28;20045;-87
2023/03/29 01:52:08;;;;;;;0.00;0.00;;;;;;;;;;4996082;28;20040;-87
2023/03/29 01:54:36;;;;;;;0.00;0.00;;;;;;;;;;4996002;28;20042;-87
2023/03/29 01:57:04;;;;;;;0.00;0.00;;;;;;;;;;4996148;28;20080;-88
2023/03/29 01:59:31;;;;;;;0.00;0.00;;;;;;;;;;5002744;28;20065;-87
2023/03/29 02:01:59;;;;;;;0.00;0.00;;;;;;;;;;5032497;28;20045;-87
2023/03/29 02:04:27;;;;;;;0.00;0.00;;;;;;;;;;5033065;28;20052;-88
2023/03/29 02:06:55;;;;;;;0.00;0.00;;;;;;;;;;5032395;28;20049;-88
2023/03/29 02:09:22;;;;;;;0.00;0.00;;;;;;;;;;5031977;28;20084;-88
2023/03/29 02:11:51;;;;;;;0.00;0.00;;;;;;;;;;5031766;28;20041;-88
2023/03/29 02:14:17;;;;;;;0.00;0.00;;;;;;;;;;5032008;28;20038;-87
2023/03/29 02:16:45;;;;;;;0.00;0.00;;;;;;;;;;5031868;28;20048;-88
2023/03/29 02:19:12;;;;;;;0.00;0.00;;;;;;;;;;5032193;28;20045;-87
2023/03/29 02:21:41;;;;;;;0.00;0.00;;;;;;;;;;5031683;28;20049;-88
2023/03/29 02:24:08;;;;;;;0.00;0.00;;;;;;;;;;5031554;28;20049;-88
2023/03/29 02:26:35;;;;;;;0.00;0.00;;;;;;;;;;5031667;28;20041;-87
2023/03/29 02:29:01;;;;;;;0.00;0.00;;;;;;;;;;5031679;28;20051;-87
2023/03/29 02:31:30;;;;;;;0.00;0.00;;;;;;;;;;5031226;28;20044;-88
2023/03/29 02:34:27;;;;;;;0.00;0.00;;;;;;;;;;5031460;28;20137;-88
2023/03/29 02:36:54;;;;;;;0.00;0.00;;;;;;;;;;5007203;28;20053;-88
2023/03/29 02:39:21;;;;;;;0.22;0.10;;;;;;;;;;5031759;28;20274;-88
2023/03/29 02:41:48;;;;;;;0.00;0.00;;;;;;;;;;5031604;28;20136;-88
2023/03/29 02:44:17;;;;;;;0.00;0.00;;;;;;;;;;5031255;28;20057;-87
2023/03/29 02:46:44;;;;;;;0.00;0.00;;;;;;;;;;5031286;28;20041;-87
2023/03/29 02:49:10;;;;;;;0.00;0.00;;;;;;;;;;5031086;28;20064;-87
2023/03/29 02:51:37;;;;;;;0.00;0.00;;;;;;;;;;5031182;28;20044;-87
2023/03/29 02:54:12;;;;;;;0.00;0.00;;;;;;;;;;5031290;28;20099;-87
2023/03/29 02:56:46;;;;;;;0.00;0.00;;;;;;;;;;5031007;28;20077;-88
2023/03/29 02:59:13;;;;;;;0.00;0.00;;;;;;;;;;5028516;28;20045;-87
2023/03/29 03:01:41;;;;;;;0.00;0.00;;;;;;;;;;4994679;28;20061;-87
2023/03/29 03:04:08;;;;;;;0.00;0.00;;;;;;;;;;4994990;28;20095;-87
2023/03/29 03:06:35;;;;;;;0.00;0.00;;;;;;;;;;4994019;28;20141;-87
2023/03/29 03:09:02;;;;;;;0.00;0.00;;;;;;;;;;4994754;28;20371;-87
2023/03/29 03:11:28;;;;;;;0.00;0.00;;;;;;;;;;4994967;28;20049;-87
2023/03/29 03:13:54;;;;;;;0.00;0.00;;;;;;;;;;4995001;28;20069;-88
2023/03/29 03:16:20;;;;;;;0.00;0.00;;;;;;;;;;4994893;28;20048;-87
2023/03/29 03:18:49;;;;;;;0.00;0.00;;;;;;;;;;4995013;28;20124;-87
2023/03/29 03:21:15;;;;;;;0.00;0.00;;;;;;;;;;4994971;28;20049;-87
2023/03/29 03:23:41;;;;;;;0.08;0.08;;;;;;;;;;4994547;28;20049;-87
2023/03/29 03:26:07;;;;;;;0.00;0.00;;;;;;;;;;4994830;28;20124;-87
2023/03/29 03:28:34;;;;;;;0.00;0.00;;;;;;;;;;4994607;28;20104;-87
2023/03/29 03:31:00;;;;;;;0.00;0.00;;;;;;;;;;4994669;28;20042;-87
2023/03/29 03:33:27;;;;;;;0.10;0.00;;;;;;;;;;4994475;28;20129;-87
2023/03/29 03:35:55;;;;;;;0.00;0.00;;;;;;;;;;4994705;28;20038;-88
2023/03/29 03:38:22;;;;;;;0.00;0.00;;;;;;;;;;4994820;28;20461;-88
2023/03/29 03:40:55;;;;;;;0.00;0.00;;;;;;;;;;4994799;28;20077;-87
2023/03/29 03:43:21;;;;;;;0.13;0.00;;;;;;;;;;4994405;28;20400;-87
2023/03/29 03:45:48;;;;;;;0.00;0.00;;;;;;;;;;4994701;28;20137;-87
2023/03/29 03:48:14;;;;;;;0.22;0.17;;;;;;;;;;4994529;28;20057;-87
2023/03/29 03:50:40;;;;;;;0.00;0.00;;;;;;;;;;4994355;28;20125;-87
2023/03/29 03:53:07;;;;;;;0.10;0.00;;;;;;;;;;4994524;28;20135;-87
2023/03/29 03:55:33;;;;;;;0.00;0.00;;;;;;;;;;4994659;28;20541;-87
2023/03/29 03:57:59;;;;;;;0.00;0.00;;;;;;;;;;4994172;28;20109;-88
2023/03/29 04:00:26;;;;;;;0.00;0.00;;;;;;;;;;5015327;28;20089;-87
2023/03/29 04:02:55;;;;;;;0.00;0.00;;;;;;;;;;5030638;28;20115;-87
2023/03/29 04:05:21;;;;;;;0.00;0.00;;;;;;;;;;5030570;28;20052;-88
2023/03/29 04:07:47;;;;;;;0.00;0.00;;;;;;;;;;5030312;28;20042;-87
2023/03/29 04:10:14;;;;;;;0.00;0.00;;;;;;;;;;5030613;28;20072;-88
2023/03/29 04:12:40;;;;;;;0.00;0.00;;;;;;;;;;5030218;28;20108;-87
2023/03/29 04:15:07;;;;;;;0.00;0.00;;;;;;;;;;5030790;28;20041;-88
2023/03/29 04:17:33;;;;;;;0.00;0.00;;;;;;;;;;5032523;28;20049;-87
2023/03/29 04:20:01;;;;;;;0.00;0.00;;;;;;;;;;5034051;28;20037;-87
2023/03/29 04:22:27;;;;;;;0.00;0.00;;;;;;;;;;5034004;28;20464;-87
2023/03/29 04:24:53;;;;;;;0.65;0.38;;;;;;;;;;5034404;28;20045;-87
2023/03/29 04:27:19;;;;;;;0.00;0.00;;;;;;;;;;5034182;28;20041;-88
2023/03/29 04:29:45;;;;;;;0.00;0.00;;;;;;;;;;5033430;28;20096;-88
2023/03/29 04:32:11;;;;;;;0.00;0.00;;;;;;;;;;5033613;28;20118;-87
2023/03/29 04:34:37;;;;;;;0.05;0.00;;;;;;;;;;5033358;28;20037;-87
2023/03/29 04:37:09;;;;;;;0.00;0.00;;;;;;;;;;5033616;28;20441;-87
2023/03/29 04:39:36;;;;;;;0.00;0.00;;;;;;;;;;5033443;28;20076;-87
2023/03/29 04:42:02;;;;;;;0.00;0.00;;;;;;;;;;5033691;28;20045;-87
2023/03/29 04:44:28;;;;;;;0.00;0.00;;;;;;;;;;5033404;28;20045;-87
2023/03/29 04:46:54;;;;;;;0.00;0.00;;;;;;;;;;5033457;28;20049;-87
2023/03/29 04:49:20;;;;;;;0.00;0.00;;;;;;;;;;5033095;28;20037;-88
2023/03/29 04:51:46;;;;;;;0.00;0.00;;;;;;;;;;5033709;28;20444;-87
2023/03/29 04:54:12;;;;;;;0.00;0.00;;;;;;;;;;5032905;28;20079;-87
2023/03/29 04:56:38;;;;;;;0.00;0.00;;;;;;;;;;5033828;28;20045;-88
2023/03/29 04:59:04;;;;;;;0.00;0.00;;;;;;;;;;5031615;28;20099;-87
2023/03/29 05:01:30;;;;;;;0.00;0.00;;;;;;;;;;4997187;28;20100;-87
2023/03/29 05:03:56;;;;;;;0.00;0.00;;;;;;;;;;4996707;28;20124;-87
2023/03/29 05:06:22;;;;;;;2.80;0.10;;;;;;;;;;4997273;28;20042;-87
2023/03/29 05:08:50;;;;;;;0.00;0.00;;;;;;;;;;4997119;28;20140;-87
2023/03/29 05:11:18;;;;;;;0.00;0.00;;;;;;;;;;4997294;28;20386;-87
2023/03/29 05:13:44;;;;;;;0.00;0.00;;;;;;;;;;4996912;28;20050;-87
2023/03/29 05:16:10;;;;;;;0.00;0.00;;;;;;;;;;4996704;28;20091;-87
2023/03/29 05:18:36;;;;;;;0.00;0.00;;;;;;;;;;4997004;28;20509;-87
2023/03/29 05:21:02;;;;;;;0.00;0.00;;;;;;;;;;4996791;28;20045;-87
2023/03/29 05:23:29;;;;;;;0.00;0.00;;;;;;;;;;4996737;28;20045;-87
2023/03/29 05:25:56;;;;;;;0.00;0.00;;;;;;;;;;4996748;28;20049;-87
2023/03/29 05:28:22;;;;;;;0.00;0.00;;;;;;;;;;4995985;28;20046;-87
2023/03/29 05:30:58;;;;;;;0.28;0.00;;;;;;;;;;4996635;28;20374;-88
2023/03/29 05:33:24;;;;;;;0.00;0.00;;;;;;;;;;4996288;28;20048;-87
2023/03/29 05:35:58;;;;;;;0.10;0.00;;;;;;;;;;4996834;28;20161;-88
2023/03/29 05:38:24;;;;;;;0.00;0.00;;;;;;;;;;4996566;28;20067;-87
2023/03/29 05:40:51;;;;;;;0.00;0.00;;;;;;;;;;4996282;28;20045;-87
2023/03/29 05:43:17;;;;;;;0.00;0.00;;;;;;;;;;4996067;28;20046;-87
2023/03/29 05:45:45;;;;;;;0.00;0.00;;;;;;;;;;4996048;28;20045;-87
2023/03/29 05:48:11;;;;;;;0.00;0.00;;;;;;;;;;4995950;28;20038;-87
2023/03/29 05:50:37;;;;;;;0.00;0.00;;;;;;;;;;4995964;28;20051;-87
2023/03/29 05:53:03;;;;;;;0.00;0.00;;;;;;;;;;4995942;28;20493;-89
2023/03/29 05:55:29;;;;;;;0.00;0.00;;;;;;;;;;4995802;28;20084;-88
2023/03/29 05:57:55;;;;;;;0.00;0.00;;;;;;;;;;4996188;28;20393;-90
2023/03/29 06:00:25;;;;;;;0.38;0.10;;;;;;;;;;5016153;28;20049;-88
2023/03/29 06:02:52;;;;;;;0.00;0.00;;;;;;;;;;5032378;28;20079;-87
2023/03/29 06:05:19;;;;;;;0.00;0.00;;;;;;;;;;5031725;28;20416;-87
2023/03/29 06:07:47;;;;;;;0.00;0.00;;;;;;;;;;5032031;28;20041;-87
2023/03/29 06:10:14;;;;;;;0.00;0.00;;;;;;;;;;5031534;28;20037;-87
2023/03/29 06:12:40;;;;;;;0.00;0.00;;;;;;;;;;5032187;28;20437;-87
2023/03/29 06:15:07;;;;;;;0.00;0.00;;;;;;;;;;5031580;28;20095;-87
2023/03/29 06:17:34;;;;;;;0.00;0.00;;;;;;;;;;5031692;28;20073;-90
2023/03/29 06:20:00;;;;;;;0.00;0.00;;;;;;;;;;5031782;28;20041;-87
2023/03/29 06:22:26;;;;;;;0.00;0.00;;;;;;;;;;5031728;28;20380;-87
2023/03/29 06:24:53;;;;;;;0.00;0.00;;;;;;;;;;5031319;28;20450;-88
2023/03/29 06:27:19;;;;;;;0.00;0.00;;;;;;;;;;5032018;28;20045;-91
2023/03/29 06:29:46;;;;;;;0.00;0.00;;;;;;;;;;5031599;28;20502;-89
2023/03/29 06:32:12;;;;;;;0.00;0.00;;;;;;;;;;5031852;28;20478;-90
2023/03/29 06:34:39;;;;;;;0.00;0.00;;;;;;;;;;5031560;28;20045;-88
2023/03/29 06:37:05;;;;;;;0.00;0.00;;;;;;;;;;5031578;28;20037;-87
2023/03/29 06:39:31;;;;;;;0.25;0.13;;;;;;;;;;5031286;28;20049;-87
2023/03/29 06:41:58;;;;;;;0.00;0.00;;;;;;;;;;5031201;28;20037;-87
2023/03/29 06:44:27;;;;;;;0.00;0.00;;;;;;;;;;5030961;28;20088;-87
2023/03/29 06:46:53;;;;;;;0.00;0.00;;;;;;;;;;5031385;28;20106;-88
2023/03/29 06:49:20;;;;;;;0.00;0.00;;;;;;;;;;5030874;28;20191;-87
2023/03/29 06:51:47;;;;;;;0.00;0.00;;;;;;;;;;5031403;28;20150;-88
2023/03/29 06:54:13;;;;;;;0.00;0.00;;;;;;;;;;5031334;28;20132;-87
2023/03/29 06:56:39;;;;;;;0.00;0.00;;;;;;;;;;5031372;28;20047;-88
2023/03/29 06:59:05;;;;;;;0.00;0.00;;;;;;;;;;5030903;28;20523;-87
2023/03/29 07:01:33;;;;;;;0.00;0.00;;;;;;;;;;5031054;28;20061;-87
2023/03/29 07:04:03;;;;;;;0.00;0.00;;;;;;;;;;5031127;28;20046;-88
2023/03/29 07:06:29;;;;;;;0.30;0.10;;;;;;;;;;5031314;28;20440;-88
2023/03/29 07:08:58;;;;;;;2.30;0.08;;;;;;;;;;5031101;28;20042;-88
2023/03/29 07:11:24;;;;;;;0.00;0.00;;;;;;;;;;5031251;28;20452;-88
2023/03/29 07:13:51;;;;;;;0.00;0.00;;;;;;;;;;5031043;28;20037;-89
2023/03/29 07:16:18;;;;;;;0.00;0.00;;;;;;;;;;5031162;28;20069;-89
2023/03/29 07:18:44;;;;;;;0.00;0.00;;;;;;;;;;5031535;28;20052;-89
2023/03/29 07:21:11;;;;;;;0.00;0.00;;;;;;;;;;5031050;28;20362;-88
2023/03/29 07:23:38;;;;;;;0.00;0.00;;;;;;;;;;5030992;28;20045;-89
2023/03/29 07:26:06;;;;;;;0.00;0.00;;;;;;;;;;5031106;28;20083;-88
2023/03/29 07:28:32;;;;;;;0.10;0.00;;;;;;;;;;5031093;28;20459;-88
2023/03/29 07:31:04;;;;;;;0.00;0.00;;;;;;;;;;5031150;28;20396;-88
2023/03/29 07:33:30;;;;;;;0.00;0.00;;;;;;;;;;5031668;28;20034;-89
2023/03/29 07:35:56;;;;;;;0.38;0.05;;;;;;;;;;5031981;28;20072;-88
2023/03/29 07:38:22;;;;;;;0.00;0.00;;;;;;;;;;5032344;28;20041;-91
2023/03/29 07:40:48;;;;;;;0.00;0.00;;;;;;;;;;5042657;28;20370;-88
2023/03/29 07:43:14;;;;;;;0.00;0.00;;;;;;;;;;5031298;28;20041;-89
2023/03/29 07:45:41;;;;;;;0.00;0.00;;;;;;;;;;5031418;28;20046;-89
2023/03/29 07:48:07;;;;;;;0.10;0.10;;;;;;;;;;5030850;28;20052;-88
2023/03/29 07:50:33;;;;;;;0.00;0.00;;;;;;;;;;5030627;28;20048;-87
2023/03/29 07:53:00;;;;;;;0.00;0.00;;;;;;;;;;5033414;28;20067;-91
2023/03/29 07:55:26;;;;;;;0.00;0.00;;;;;;;;;;5034549;28;20510;-89
2023/03/29 07:57:52;;;;;;;0.00;0.00;;;;;;;;;;5034798;28;20045;-89
2023/03/29 08:00:18;;;;;;;0.00;0.00;;;;;;;;;;5034162;28;20061;-90
2023/03/29 08:02:45;;;;;;;0.00;0.00;;;;;;;;;;5034637;28;20037;-88
2023/03/29 08:05:12;;;;;;;0.00;0.00;;;;;;;;;;5034519;28;20130;-88
2023/03/29 08:07:40;;;;;;;0.00;0.00;;;;;;;;;;5034733;28;20042;-88
2023/03/29 08:10:09;;;;;;;0.00;0.00;;;;;;;;;;5033917;28;20459;-90
2023/03/29 08:12:36;;;;;;;0.20;0.10;;;;;;;;;;5034406;28;20357;-88
2023/03/29 08:15:02;;;;;;;0.00;0.00;;;;;;;;;;5034154;28;20111;-89
2023/03/29 08:17:28;;;;;;;0.00;0.00;;;;;;;;;;5034544;28;20073;-90
2023/03/29 08:19:54;;;;;;;0.00;0.00;;;;;;;;;;5034643;28;20092;-88
2023/03/29 08:22:20;;;;;;;0.00;0.00;;;;;;;;;;5034042;28;20465;-89
2023/03/29 08:24:46;;;;;;;0.00;0.00;;;;;;;;;;5034113;28;20532;-88
2023/03/29 08:27:13;;;;;;;0.00;0.00;;;;;;;;;;5034201;28;20488;-88
2023/03/29 08:29:39;;;;;;;0.00;0.00;;;;;;;;;;5034301;28;20128;-91
2023/03/29 08:32:05;;;;;;;0.00;0.00;;;;;;;;;;5033949;28;20077;-90
2023/03/29 08:34:31;;;;;;;0.00;0.00;;;;;;;;;;5034050;28;20061;-89
2023/03/29 08:36:58;;;;;;;0.00;0.00;;;;;;;;;;5033758;28;20120;-88
2023/03/29 08:39:24;;;;;;;0.00;0.00;;;;;;;;;;5034017;28;20042;-89
2023/03/29 08:41:57;;;;;;;0.00;0.00;;;;;;;;;;5033806;28;20052;-89
2023/03/29 08:44:41;;;;;;;0.00;0.00;;;;;;;;;;5033365;28;20048;-89
2023/03/29 08:47:29;;;;;;;0.00;0.00;;;;;;;;;;5033544;28;20489;-89
2023/03/29 08:49:55;;;;;;;0.00;0.00;;;;;;;;;;5033575;28;20080;-90
2023/03/29 08:52:21;;;;;;;0.00;0.00;;;;;;;;;;5033271;28;20576;-89
2023/03/29 08:54:50;;;;;;;0.00;0.00;;;;;;;;;;5033842;28;20080;-88
2023/03/29 08:57:18;;;;;;;0.00;0.00;;;;;;;;;;5033277;28;20052;-89
2023/03/29 08:59:45;;;;;;;0.00;0.00;;;;;;;;;;5033258;28;20065;-89
2023/03/29 09:02:16;;;;;;;0.00;0.00;;;;;;;;;;5033180;28;20048;-89
2023/03/29 09:04:42;;;;;;;0.00;0.00;;;;;;;;;;5033511;28;20061;-91
2023/03/29 09:07:10;;;;;;;0.00;0.00;;;;;;;;;;5033100;28;20083;-88
2023/03/29 09:09:36;;;;;;;0.00;0.00;;;;;;;;;;5032970;28;20049;-90
2023/03/29 09:12:21;;;;;;;0.00;0.00;;;;;;;;;;5033631;28;20038;-89
2023/03/29 09:15:05;;;;;;;0.00;0.00;;;;;;;;;;5033119;28;20120;-89
2023/03/29 09:17:50;;;;;;;0.00;0.00;;;;;;;;;;5032746;28;20088;-89
2023/03/29 09:20:22;;;;;;;0.00;0.00;;;;;;;;;;5032958;28;20112;-89
2023/03/29 09:22:57;;;;;;;0.00;0.00;;;;;;;;;;5032791;28;20048;-89
2023/03/29 09:25:43;;;;;;;0.00;0.00;;;;;;;;;;5033318;28;20374;-90
2023/03/29 09:28:21;;;;;;;0.00;0.00;;;;;;;;;;5032966;28;20053;-88
2023/03/29 09:31:07;;;;;;;0.00;0.00;;;;;;;;;;5032791;28;20053;-89
2023/03/29 09:33:41;;;;;;;0.00;0.00;;;;;;;;;;5032752;28;20045;-89
2023/03/29 09:36:14;;;;;;;0.00;0.00;;;;;;;;;;5032740;28;20110;-89
2023/03/29 09:38:42;;;;;;;0.00;0.00;;;;;;;;;;5032815;28;20392;-89
2023/03/29 09:41:26;;;;;;;0.00;0.00;;;;;;;;;;5032534;28;20481;-89
2023/03/29 09:43:55;;;;;;;0.00;0.00;;;;;;;;;;5032499;28;20091;-89
2023/03/29 09:46:23;;;;;;;0.00;0.00;;;;;;;;;;5032327;28;20400;-89
2023/03/29 09:48:51;;;;;;;0.00;0.00;;;;;;;;;;5032449;28;20048;-89
2023/03/29 09:51:19;;;;;;;0.00;0.00;;;;;;;;;;5032403;28;20049;-89
2023/03/29 09:53:46;;;;;;;0.20;0.00;;;;;;;;;;5032564;28;20037;-89
2023/03/29 09:56:14;;;;;;;0.00;0.00;;;;;;;;;;5032397;28;20045;-88
2023/03/29 09:58:41;;;;;;;0.00;0.00;;;;;;;;;;5048415;28;20049;-88
2023/03/29 10:01:09;;;;;;;0.00;0.00;;;;;;;;;;5031838;28;20053;-89
2023/03/29 10:03:35;;;;;;;0.00;0.00;;;;;;;;;;5032098;28;20049;-88
2023/03/29 10:06:04;;;;;;;0.10;0.08;;;;;;;;;;5031774;28;20048;-89
2023/03/29 10:08:41;;;;;;;0.00;0.00;;;;;;;;;;5032376;28;20129;-89
2023/03/29 10:11:12;;;;;;;0.00;0.00;;;;;;;;;;5031896;28;20037;-89
2023/03/29 10:13:44;;;;;;;0.40;0.00;;;;;;;;;;5032110;28;20065;-89
2023/03/29 10:16:17;;;;;;;0.10;0.03;;;;;;;;;;5031308;28;20037;-88
2023/03/29 10:18:43;;;;;;;0.00;0.00;;;;;;;;;;5032027;28;20444;-89
2023/03/29 10:21:11;;;;;;;0.00;0.00;;;;;;;;;;5031937;28;20045;-88
2023/03/29 10:23:37;;;;;;;0.00;0.00;;;;;;;;;;5031822;28;20357;-88
2023/03/29 10:26:05;;;;;;;0.00;0.00;;;;;;;;;;5031727;28;20037;-88
2023/03/29 10:28:32;;;;;;;0.65;0.22;;;;;;;;;;5032410;28;20476;-88
2023/03/29 10:31:00;;;;;;;0.00;0.00;;;;;;;;;;5031743;28;20045;-89
2023/03/29 10:33:31;;;;;;;0.00;0.00;;;;;;;;;;5031445;28;20037;-88
2023/03/29 10:35:57;;;;;;;0.00;0.00;;;;;;;;;;5031818;28;20037;-88
2023/03/29 10:38:26;;;;;;;0.00;0.00;;;;;;;;;;5031554;28;20077;-89
2023/03/29 10:40:53;;;;;;;0.05;0.00;;;;;;;;;;5031843;28;20056;-88
2023/03/29 10:43:25;;;;;;;0.13;0.00;;;;;;;;;;5031240;28;20099;-89
2023/03/29 10:45:56;;;;;;;0.00;0.00;;;;;;;;;;5031461;28;20137;-88
2023/03/29 10:48:29;;;;;;;0.00;0.00;;;;;;;;;;5015079;28;20041;-89
2023/03/29 10:51:00;;;;;;;0.00;0.00;;;;;;;;;;5031417;28;20092;-89
2023/03/29 10:53:33;;;;;;;0.00;0.00;;;;;;;;;;5031090;28;20033;-88
2023/03/29 10:56:02;;;;;;;0.00;0.00;;;;;;;;;;5031325;28;20045;-88
2023/03/29 10:58:34;;;;;;;0.00;0.00;;;;;;;;;;5031222;28;20536;-89
2023/03/29 11:01:00;;;;;;;0.00;0.00;;;;;;;;;;5031150;28;20056;-89
2023/03/29 11:03:33;;;;;;;0.00;0.00;;;;;;;;;;5031197;28;20528;-89
2023/03/29 11:06:03;;;;;;;0.00;0.00;;;;;;;;;;5031091;28;20051;-89
2023/03/29 11:08:37;;;;;;;0.22;0.10;;;;;;;;;;5030918;28;20057;-87
2023/03/29 11:11:16;;;;;;;0.07;0.00;;;;;;;;;;5031136;28;20037;-88
2023/03/29 11:13:59;;;;;;;0.00;0.00;;;;;;;;;;5030722;28;20125;-87
2023/03/29 11:16:25;;;;;;;0.00;0.00;;;;;;;;;;5031208;28;20033;-88
2023/03/29 11:19:00;;;;;;;0.03;0.00;;;;;;;;;;5030742;28;20515;-87
2023/03/29 11:21:26;;;;;;;0.00;0.00;;;;;;;;;;5030877;28;20041;-88
2023/03/29 11:23:52;;;;;;;0.00;0.00;;;;;;;;;;5030458;28;20057;-88
2023/03/29 11:26:39;;;;;;;0.15;0.00;;;;;;;;;;5031342;28;20049;-88
2023/03/29 11:29:10;;;;;;;0.00;0.00;;;;;;;;;;5034892;28;20041;-88
2023/03/29 11:31:54;;;;;;;0.47;0.10;;;;;;;;;;5035820;28;20087;-88
2023/03/29 11:34:20;;;;;;;0.00;0.00;;;;;;;;;;5035045;28;20045;-88
2023/03/29 11:36:49;;;;;;;0.00;0.00;;;;;;;;;;5034620;28;20055;-88
2023/03/29 11:39:22;;;;;;;0.00;0.00;;;;;;;;;;5035161;28;20041;-88
2023/03/29 11:41:52;;;;;;;0.00;0.00;;;;;;;;;;5034863;28;20067;-88
2023/03/29 11:44:26;;;;;;;0.47;0.32;;;;;;;;;;5034964;28;20037;-88
2023/03/29 11:46:56;;;;;;;0.00;0.00;;;;;;;;;;5034471;28;20421;-87
2023/03/29 11:49:28;;;;;;;0.00;0.00;;;;;;;;;;5035052;28;20041;-91
2023/03/29 11:52:00;;;;;;;0.57;0.10;;;;;;;;;;5034467;28;20044;-89
2023/03/29 11:54:29;;;;;;;0.00;0.00;;;;;;;;;;5034578;28;20483;-88
2023/03/29 11:56:59;;;;;;;0.00;0.00;;;;;;;;;;5034359;28;20069;-87
2023/03/29 11:59:45;;;;;;;0.00;0.00;;;;;;;;;;5032508;28;20045;-89
2023/03/29 12:02:17;;;;;;;0.00;0.00;;;;;;;;;;4997990;28;20073;-89
2023/03/29 12:04:46;;;;;;;0.10;0.08;;;;;;;;;;4998867;28;20050;-87
2023/03/29 12:07:19;;;;;;;0.00;0.00;;;;;;;;;;4998079;28;20056;-88
2023/03/29 12:09:49;;;;;;;0.00;0.00;;;;;;;;;;4998007;28;20449;-88
2023/03/29 12:12:15;;;;;;;0.00;0.00;;;;;;;;;;4997838;28;20489;-87
2023/03/29 12:14:44;;;;;;;0.30;0.20;;;;;;;;;;4998131;28;20123;-88
2023/03/29 12:17:12;;;;;;;0.00;0.00;;;;;;;;;;4998009;28;20037;-88
2023/03/29 12:19:43;;;;;;;0.20;0.10;;;;;;;;;;4997814;28;20119;-88
2023/03/29 12:22:09;;;;;;;0.00;0.00;;;;;;;;;;4997688;28;20049;-87
2023/03/29 12:24:37;;;;;;;0.10;0.00;;;;;;;;;;4997992;28;20144;-88
2023/03/29 12:27:21;;;;;;;0.00;0.00;;;;;;;;;;4998002;28;20042;-87
2023/03/29 12:30:07;;;;;;;0.38;0.30;;;;;;;;;;4997948;28;20049;-87
2023/03/29 12:32:36;;;;;;;0.00;0.00;;;;;;;;;;4997233;28;20497;-87
2023/03/29 12:35:09;;;;;;;0.00;0.00;;;;;;;;;;4997849;28;20048;-88
2023/03/29 12:38:07;;;;;;;0.00;0.00;;;;;;;;;;4997402;28;20038;-88
2023/03/29 12:40:40;;;;;;;0.17;0.00;;;;;;;;;;4973666;28;20080;-87
2023/03/29 12:43:07;;;;;;;0.00;0.00;;;;;;;;;;4997279;28;20057;-87
2023/03/29 12:45:47;;;;;;;0.00;0.00;;;;;;;;;;4997531;28;20046;-87
2023/03/29 12:48:26;;;;;;;0.20;0.17;;;;;;;;;;4997195;28;20050;-87
2023/03/29 12:51:01;;;;;;;0.30;0.30;;;;;;;;;;4997429;28;20100;-86
2023/03/29 12:53:33;;;;;;;0.00;0.00;;;;;;;;;;4997183;28;20493;-87
2023/03/29 12:56:02;;;;;;;0.10;0.00;;;;;;;;;;4997272;28;20048;-87
2023/03/29 12:58:47;;;;;;;0.03;0.03;;;;;;;;;;4997143;28;20492;-87
2023/03/29 13:01:26;;;;;;;0.00;0.00;;;;;;;;;;5027350;28;20103;-88
2023/03/29 13:03:56;;;;;;;0.00;0.00;;;;;;;;;;5033021;28;20042;-87
2023/03/29 13:06:31;;;;;;;0.08;0.08;;;;;;;;;;5033626;28;20041;-88
2023/03/29 13:09:04;;;;;;;0.57;0.20;;;;;;;;;;5033073;28;20095;-88
2023/03/29 13:11:34;;;;;;;0.00;0.00;;;;;;;;;;5033418;28;20116;-87
2023/03/29 13:14:02;;;;;;;0.00;0.00;;;;;;;;;;5033090;28;20048;-88
2023/03/29 13:16:34;;;;;;;0.00;0.00;;;;;;;;;;5033050;28;20037;-87
2023/03/29 13:19:05;;;;;;;0.63;0.00;;;;;;;;;;5032879;28;20041;-88
2023/03/29 13:21:48;;;;;;;0.15;0.00;;;;;;;;;;5033503;28;20046;-87
2023/03/29 13:24:14;;;;;;;0.47;0.47;;;;;;;;;;5033188;28;20051;-87
2023/03/29 13:26:52;;;;;;;0.00;0.00;;;;;;;;;;5034121;28;20045;-87
2023/03/29 13:29:29;;;;;;;0.00;0.00;;;;;;;;;;5033513;28;20045;-88
2023/03/29 13:32:05;;;;;;;0.00;0.00;;;;;;;;;;5033305;28;20366;-87
2023/03/29 13:34:40;;;;;;;0.15;0.15;;;;;;;;;;5032781;28;20041;-87
2023/03/29 13:37:11;;;;;;;0.00;0.00;;;;;;;;;;5033047;28;20064;-87
2023/03/29 13:39:47;;;;;;;0.00;0.00;;;;;;;;;;5032492;28;20124;-87
2023/03/29 13:42:14;;;;;;;;;;;;;;;;;;5033038;28;20042;-87
2023/03/29 13:44:47;;;;;;;0.05;0.05;;;;;;;;;;5032348;28;19962;-88
2023/03/29 13:47:28;;;;;;;0.10;0.00;;;;;;;;;;5032926;28;20057;-87
2023/03/29 13:49:57;;;;;;;0.00;0.00;;;;;;;;;;5031439;28;20042;-87
2023/03/29 13:52:22;;;;;;;0.00;0.00;;;;;;;;;;5032574;28;20125;-87
2023/03/29 13:54:55;;;;;;;0.00;0.00;;;;;;;;;;5032105;28;20517;-87
2023/03/29 13:57:25;;;;;;;0.00;0.00;;;;;;;;;;5032508;28;20045;-92
2023/03/29 14:00:11;;;;;;;0.00;0.00;;;;;;;;;;5032019;28;20066;-88
2023/03/29 14:02:40;;;;;;;0.00;0.00;;;;;;;;;;5030116;28;20045;-89
2023/03/29 14:05:08;;;;;;;0.00;0.00;;;;;;;;;;5032767;28;20072;-90
2023/03/29 14:07:36;;;;;;;0.00;0.00;;;;;;;;;;5033330;28;20041;-89
2023/03/29 14:10:02;;;;;;;0.00;0.00;;;;;;;;;;5032062;28;20041;-87
2023/03/29 14:12:35;;;;;;;0.00;0.00;;;;;;;;;;5032484;28;20127;-89
2023/03/29 14:15:03;;;;;;;0.00;0.00;;;;;;;;;;5031911;28;20069;-88
2023/03/29 14:17:29;;;;;;;0.00;0.00;;;;;;;;;;5032376;28;20128;-87
2023/03/29 14:19:59;;;;;;;0.00;0.00;;;;;;;;;;5031846;28;20224;-88
2023/03/29 14:22:30;;;;;;;0.22;0.10;;;;;;;;;;5031660;28;20110;-87
2023/03/29 14:24:57;;;;;;;0.00;0.00;;;;;;;;;;5032231;28;20038;-91
2023/03/29 14:27:23;;;;;;;0.08;0.00;;;;;;;;;;5032153;28;20047;-88
2023/03/29 14:29:51;;;;;;;0.00;0.00;;;;;;;;;;5031472;28;20128;-88
2023/03/29 14:32:18;;;;;;;0.00;0.00;;;;;;;;;;5031448;28;20073;-88
2023/03/29 14:34:47;;;;;;;0.20;0.10;;;;;;;;;;5031801;28;20044;-87
2023/03/29 14:37:15;;;;;;;0.00;0.00;;;;;;;;;;5032018;28;20455;-88
2023/03/29 14:39:42;;;;;;;0.00;0.00;;;;;;;;;;5031306;28;20049;-88
2023/03/29 14:42:16;;;;;;;0.00;0.00;;;;;;;;;;5031702;28;20406;-88
2023/03/29 14:44:43;;;;;;;0.00;0.00;;;;;;;;;;5031528;28;20037;-89
2023/03/29 14:47:14;;;;;;;0.10;0.00;;;;;;;;;;5031381;28;20462;-88
2023/03/29 14:49:40;;;;;;;0.00;0.00;;;;;;;;;;5031154;28;20488;-89
2023/03/29 14:52:07;;;;;;;0.00;0.00;;;;;;;;;;5031193;28;20053;-88
2023/03/29 14:54:34;;;;;;;0.00;0.00;;;;;;;;;;5031212;28;20044;-88
2023/03/29 14:57:05;;;;;;;0.00;0.00;;;;;;;;;;5031524;28;20315;-88